createdAt,value
2018-09-11T00:01:16.026Z,17.90
2018-09-11T00:04:20.290Z,17.90
2018-09-11T00:07:23.735Z,18.20
2018-09-11T00:10:27.118Z,18.00
2018-09-11T00:13:30.555Z,17.90
2018-09-11T00:16:34.433Z,17.90
2018-09-11T00:19:45.280Z,17.90
2018-09-11T00:22:49.667Z,17.80
2018-09-11T00:25:52.814Z,17.70
2018-09-11T00:28:56.874Z,17.80
2018-09-11T00:32:00.391Z,17.80
2018-09-11T00:35:08.604Z,17.70
2018-09-11T00:38:11.314Z,17.60
2018-09-11T00:41:15.082Z,17.60
2018-09-11T00:44:19.119Z,17.70
2018-09-11T00:47:22.814Z,17.60
2018-09-11T00:50:25.169Z,17.70
2018-09-11T00:53:27.534Z,17.70
2018-09-11T00:56:29.934Z,17.60
2018-09-11T00:59:32.321Z,17.60
2018-09-11T01:02:34.702Z,17.50
2018-09-11T01:05:37.106Z,17.70
2018-09-11T01:08:39.468Z,17.50
2018-09-11T01:11:41.864Z,17.60
2018-09-11T01:14:44.435Z,17.60
2018-09-11T01:17:46.798Z,17.60
2018-09-11T01:20:49.172Z,17.60
2018-09-11T01:23:51.731Z,17.60
2018-09-11T01:26:54.071Z,17.60
2018-09-11T01:29:56.575Z,17.80
2018-09-11T01:32:58.941Z,17.60
2018-09-11T01:36:01.378Z,17.60
2018-09-11T01:39:06.246Z,17.60
2018-09-11T01:42:08.577Z,17.60
2018-09-11T01:45:10.935Z,17.60
2018-09-11T01:48:13.287Z,17.70
2018-09-11T01:51:15.670Z,17.70
2018-09-11T01:54:17.994Z,17.70
2018-09-11T01:57:20.358Z,17.60
2018-09-11T02:00:23.283Z,17.60
2018-09-11T02:03:25.673Z,17.50
2018-09-11T02:06:28.024Z,17.60
2018-09-11T02:09:30.455Z,17.60
2018-09-11T02:12:32.811Z,17.60
2018-09-11T02:15:35.226Z,17.70
2018-09-11T02:18:37.620Z,17.70
2018-09-11T02:21:39.986Z,17.70
2018-09-11T02:24:42.381Z,17.70
2018-09-11T02:27:44.689Z,17.70
2018-09-11T02:30:47.028Z,17.80
2018-09-11T02:33:49.389Z,17.90
2018-09-11T02:36:52.252Z,17.70
2018-09-11T02:39:54.640Z,17.70
2018-09-11T02:42:57.037Z,17.70
2018-09-11T02:45:59.416Z,17.50
2018-09-11T02:49:01.739Z,17.70
2018-09-11T02:52:04.193Z,17.70
2018-09-11T02:55:07.236Z,17.60
2018-09-11T02:58:09.577Z,17.60
2018-09-11T03:01:11.931Z,17.60
2018-09-11T03:04:14.319Z,17.60
2018-09-11T03:07:16.675Z,17.60
2018-09-11T03:10:19.072Z,17.60
2018-09-11T03:13:21.439Z,17.50
2018-09-11T03:16:23.790Z,17.60
2018-09-11T03:19:26.190Z,17.50
2018-09-11T03:22:28.578Z,17.40
2018-09-11T03:25:30.998Z,17.40
2018-09-11T03:28:33.684Z,17.50
2018-09-11T03:31:36.016Z,17.50
2018-09-11T03:34:38.390Z,17.40
2018-09-11T03:37:40.705Z,17.30
2018-09-11T03:40:43.079Z,17.40
2018-09-11T03:43:45.524Z,17.50
2018-09-11T03:46:47.891Z,17.30
2018-09-11T03:49:50.216Z,17.30
2018-09-11T03:52:52.589Z,17.30
2018-09-11T03:55:54.940Z,17.20
2018-09-11T03:58:57.292Z,17.20
2018-09-11T04:01:59.680Z,17.30
2018-09-11T04:05:02.055Z,17.30
2018-09-11T04:08:04.583Z,17.20
2018-09-11T04:11:06.942Z,17.30
2018-09-11T04:14:09.361Z,17.30
2018-09-11T04:17:11.799Z,17.40
2018-09-11T04:20:14.181Z,17.30
2018-09-11T04:23:16.603Z,17.30
2018-09-11T04:26:19.017Z,17.30
2018-09-11T04:29:21.379Z,17.30
2018-09-11T04:32:23.808Z,17.30
2018-09-11T04:35:26.204Z,17.30
2018-09-11T04:38:28.616Z,17.30
2018-09-11T04:41:30.911Z,17.20
2018-09-11T04:44:33.255Z,17.30
2018-09-11T04:47:35.592Z,17.30
2018-09-11T04:50:37.943Z,17.40
2018-09-11T04:53:40.292Z,17.40
2018-09-11T04:56:42.640Z,17.50
2018-09-11T04:59:45.023Z,17.40
2018-09-11T05:02:47.393Z,17.40
2018-09-11T05:05:50.767Z,17.50
2018-09-11T05:08:53.413Z,17.50
2018-09-11T05:11:57.792Z,17.50
2018-09-11T05:15:00.593Z,17.40
2018-09-11T05:18:03.029Z,17.40
2018-09-11T05:21:05.399Z,17.40
2018-09-11T05:24:07.777Z,17.50
2018-09-11T05:27:10.530Z,17.50
2018-09-11T05:30:13.025Z,17.50
2018-09-11T05:33:15.463Z,17.40
2018-09-11T05:36:17.810Z,17.40
2018-09-11T05:39:21.280Z,17.40
2018-09-11T05:42:23.701Z,17.40
2018-09-11T05:45:26.388Z,17.40
2018-09-11T05:48:29.003Z,17.30
2018-09-11T05:51:31.456Z,17.40
2018-09-11T05:54:33.867Z,17.50
2018-09-11T05:57:36.268Z,17.50
2018-09-11T06:00:38.583Z,17.40
2018-09-11T06:03:40.977Z,17.50
2018-09-11T06:06:43.346Z,17.60
2018-09-11T06:09:45.706Z,17.50
2018-09-11T06:12:48.051Z,17.40
2018-09-11T06:15:50.400Z,17.40
2018-09-11T06:18:52.773Z,17.40
2018-09-11T06:21:55.111Z,17.40
2018-09-11T06:24:57.524Z,17.50
2018-09-11T06:27:59.962Z,17.40
2018-09-11T06:31:02.384Z,17.50
2018-09-11T06:34:05.006Z,17.40
2018-09-11T06:37:07.323Z,17.40
2018-09-11T06:40:09.689Z,17.40
2018-09-11T06:43:12.320Z,17.50
2018-09-11T06:46:14.693Z,17.50
2018-09-11T06:49:17.078Z,17.50
2018-09-11T06:52:19.407Z,17.40
2018-09-11T06:55:21.846Z,17.50
2018-09-11T06:58:24.217Z,17.40
2018-09-11T07:01:26.592Z,17.50
2018-09-11T07:04:28.928Z,17.50
2018-09-11T07:07:31.420Z,17.50
2018-09-11T07:10:33.897Z,17.60
2018-09-11T07:13:36.238Z,17.60
2018-09-11T07:16:38.641Z,17.60
2018-09-11T07:19:41.091Z,17.70
2018-09-11T07:22:43.348Z,17.70
2018-09-11T07:25:45.686Z,17.70
2018-09-11T07:28:48.032Z,17.80
2018-09-11T07:31:50.479Z,17.90
2018-09-11T07:34:53.124Z,18.00
2018-09-11T07:37:55.530Z,18.00
2018-09-11T07:40:57.878Z,18.10
2018-09-11T07:44:00.252Z,18.10
2018-09-11T07:47:02.649Z,18.10
2018-09-11T07:50:05.505Z,18.30
2018-09-11T07:53:07.836Z,18.30
2018-09-11T07:56:10.212Z,18.40
2018-09-11T07:59:12.527Z,18.50
2018-09-11T08:02:14.957Z,18.60
2018-09-11T08:05:17.378Z,18.70
2018-09-11T08:08:19.758Z,18.70
2018-09-11T08:11:22.160Z,18.70
2018-09-11T08:14:24.533Z,18.70
2018-09-11T08:17:26.968Z,18.70
2018-09-11T08:20:29.304Z,18.70
2018-09-11T08:23:31.787Z,18.70
2018-09-11T08:26:34.128Z,18.80
2018-09-11T08:29:36.446Z,18.80
2018-09-11T08:32:38.847Z,18.70
2018-09-11T08:35:41.181Z,18.70
2018-09-11T08:38:43.551Z,18.70
2018-09-11T08:41:46.066Z,18.80
2018-09-11T08:44:48.378Z,18.80
2018-09-11T08:47:50.775Z,18.80
2018-09-11T08:50:53.100Z,19.00
2018-09-11T08:53:55.476Z,19.00
2018-09-11T08:56:57.830Z,18.90
2018-09-11T09:00:00.200Z,18.90
2018-09-11T09:03:02.567Z,18.90
2018-09-11T09:06:05.014Z,19.00
2018-09-11T09:09:08.598Z,19.10
2018-09-11T09:12:10.949Z,19.20
2018-09-11T09:15:13.323Z,19.20
2018-09-11T09:18:15.669Z,19.30
2018-09-11T09:21:18.079Z,19.20
2018-09-11T09:24:20.457Z,19.30
2018-09-11T09:27:22.913Z,19.30
2018-09-11T09:30:25.424Z,19.40
2018-09-11T09:33:34.538Z,19.40
2018-09-11T09:36:37.032Z,19.60
2018-09-11T09:39:39.598Z,19.70
2018-09-11T09:42:41.961Z,19.90
2018-09-11T09:45:44.323Z,20.00
2018-09-11T09:48:46.704Z,19.90
2018-09-11T09:51:49.084Z,20.20
2018-09-11T09:54:51.443Z,20.30
2018-09-11T09:57:53.865Z,20.30
2018-09-11T10:00:56.901Z,20.40
2018-09-11T10:03:59.262Z,20.60
2018-09-11T10:07:01.755Z,20.80
2018-09-11T10:10:04.146Z,21.00
2018-09-11T10:13:06.543Z,21.10
2018-09-11T10:16:08.927Z,21.30
2018-09-11T10:19:11.317Z,21.50
2018-09-11T10:22:13.676Z,21.30
2018-09-11T10:25:16.049Z,21.30
2018-09-11T10:28:18.405Z,21.50
2018-09-11T10:31:20.732Z,21.80
2018-09-11T10:34:23.524Z,21.80
2018-09-11T10:37:25.857Z,22.00
2018-09-11T10:40:28.160Z,22.00
2018-09-11T10:43:30.555Z,22.00
2018-09-11T10:46:33.000Z,22.00
2018-09-11T10:49:35.337Z,22.20
2018-09-11T10:52:37.666Z,22.20
2018-09-11T10:55:40.059Z,22.30
2018-09-11T10:58:42.408Z,22.40
2018-09-11T11:01:44.775Z,22.40
2018-09-11T11:04:47.182Z,22.60
2018-09-11T11:07:49.554Z,22.60
2018-09-11T11:10:51.882Z,22.90
2018-09-11T11:13:54.220Z,23.00
2018-09-11T11:16:56.633Z,23.00
2018-09-11T11:19:58.971Z,23.40
2018-09-11T11:23:01.321Z,23.30
2018-09-11T11:26:03.728Z,23.30
2018-09-11T11:29:06.116Z,23.60
2018-09-11T11:32:08.467Z,23.60
2018-09-11T11:35:10.838Z,23.50
2018-09-11T11:38:13.239Z,23.50
2018-09-11T11:41:16.882Z,23.50
2018-09-11T11:44:19.951Z,23.70
2018-09-11T11:47:23.548Z,23.70
2018-09-11T11:50:26.012Z,24.00
2018-09-11T11:53:28.607Z,24.00
2018-09-11T11:56:31.636Z,24.10
2018-09-11T11:59:34.136Z,24.30
2018-09-11T12:02:37.070Z,24.20
2018-09-11T12:05:39.782Z,24.10
2018-09-11T12:08:42.356Z,24.10
2018-09-11T12:11:44.699Z,23.90
2018-09-11T12:14:47.276Z,23.90
2018-09-11T12:17:50.172Z,24.20
2018-09-11T12:20:52.547Z,24.10
2018-09-11T12:23:54.914Z,23.90
2018-09-11T12:26:57.365Z,24.20
2018-09-11T12:29:59.722Z,24.30
2018-09-11T12:33:02.167Z,24.50
2018-09-11T12:36:04.795Z,24.40
2018-09-11T12:39:08.115Z,24.60
2018-09-11T12:42:10.662Z,24.90
2018-09-11T12:45:13.004Z,25.10
2018-09-11T12:48:15.972Z,25.20
2018-09-11T12:51:17.940Z,25.00
2018-09-11T12:54:20.319Z,25.10
2018-09-11T12:57:22.968Z,25.40
2018-09-11T13:00:25.563Z,25.30
2018-09-11T13:03:27.951Z,25.30
2018-09-11T13:06:30.516Z,25.20
2018-09-11T13:09:33.117Z,25.40
2018-09-11T13:12:35.672Z,25.50
2018-09-11T13:15:38.174Z,25.60
2018-09-11T13:18:40.723Z,25.50
2018-09-11T13:21:43.170Z,25.90
2018-09-11T13:24:46.060Z,25.90
2018-09-11T13:27:49.043Z,25.90
2018-09-11T13:30:51.429Z,26.20
2018-09-11T13:33:53.888Z,25.90
2018-09-11T13:36:56.511Z,26.30
2018-09-11T13:39:58.912Z,26.00
2018-09-11T13:43:01.579Z,25.90
2018-09-11T13:46:04.190Z,26.00
2018-09-11T13:49:07.134Z,26.20
2018-09-11T13:52:09.708Z,26.10
2018-09-11T13:55:12.385Z,26.10
2018-09-11T13:58:14.812Z,26.20
2018-09-11T14:01:17.451Z,26.10
2018-09-11T14:04:20.461Z,26.00
2018-09-11T14:07:23.272Z,26.20
2018-09-11T14:10:26.092Z,26.40
2018-09-11T14:13:28.579Z,26.40
2018-09-11T14:16:31.075Z,26.50
2018-09-11T14:19:33.900Z,26.50
2018-09-11T14:22:36.708Z,26.40
2018-09-11T14:25:39.060Z,26.10
2018-09-11T14:28:41.612Z,26.30
2018-09-11T14:31:44.648Z,26.20
2018-09-11T14:34:47.001Z,26.00
2018-09-11T14:37:53.432Z,26.00
2018-09-11T14:40:55.873Z,26.50
2018-09-11T14:43:58.236Z,26.60
2018-09-11T14:47:00.613Z,26.40
2018-09-11T14:50:02.975Z,26.30
2018-09-11T14:53:05.382Z,26.40
2018-09-11T14:56:07.790Z,26.40
2018-09-11T14:59:10.098Z,26.70
2018-09-11T15:02:12.462Z,26.50
2018-09-11T15:05:14.801Z,26.40
2018-09-11T15:08:17.110Z,26.10
2018-09-11T15:11:19.491Z,26.10
2018-09-11T15:14:21.904Z,26.10
2018-09-11T15:17:24.836Z,26.30
2018-09-11T15:20:27.743Z,26.20
2018-09-11T15:23:30.332Z,26.20
2018-09-11T15:26:32.784Z,26.20
2018-09-11T15:29:35.821Z,26.20
2018-09-11T15:32:38.407Z,26.10
2018-09-11T15:35:40.719Z,26.20
2018-09-11T15:38:43.088Z,25.90
2018-09-11T15:41:45.431Z,25.80
2018-09-11T15:44:47.771Z,25.50
2018-09-11T15:47:50.152Z,25.40
2018-09-11T15:50:52.514Z,25.20
2018-09-11T15:53:54.844Z,25.10
2018-09-11T15:56:57.210Z,24.90
2018-09-11T15:59:59.622Z,24.90
2018-09-11T16:03:02.023Z,24.90
2018-09-11T16:06:04.406Z,24.80
2018-09-11T16:09:08.681Z,24.70
2018-09-11T16:12:11.016Z,24.60
2018-09-11T16:15:13.359Z,24.60
2018-09-11T16:18:15.737Z,24.60
2018-09-11T16:21:18.119Z,24.60
2018-09-11T16:24:20.473Z,24.70
2018-09-11T16:27:22.846Z,24.80
2018-09-11T16:30:25.203Z,24.70
2018-09-11T16:33:27.573Z,24.70
2018-09-11T16:36:29.969Z,24.70
2018-09-11T16:39:32.338Z,24.60
2018-09-11T16:42:37.029Z,24.60
2018-09-11T16:45:39.438Z,24.60
2018-09-11T16:48:41.967Z,24.40
2018-09-11T16:51:44.319Z,24.30
2018-09-11T16:54:46.707Z,24.20
2018-09-11T16:57:49.593Z,24.10
2018-09-11T17:00:51.978Z,24.10
2018-09-11T17:03:54.387Z,24.10
2018-09-11T17:06:56.802Z,24.10
2018-09-11T17:09:59.147Z,24.00
2018-09-11T17:13:01.480Z,24.00
2018-09-11T17:16:03.847Z,23.90
2018-09-11T17:19:06.203Z,23.90
2018-09-11T17:22:08.626Z,23.80
2018-09-11T17:25:11.223Z,23.70
2018-09-11T17:28:13.558Z,23.60
2018-09-11T17:31:15.936Z,23.60
2018-09-11T17:34:19.459Z,23.50
2018-09-11T17:37:21.875Z,23.40
2018-09-11T17:40:24.360Z,23.30
2018-09-11T17:43:26.735Z,23.30
2018-09-11T17:46:29.156Z,23.20
2018-09-11T17:49:31.480Z,23.10
2018-09-11T17:52:33.932Z,22.90
2018-09-11T17:55:36.309Z,22.90
2018-09-11T17:58:38.651Z,22.80
2018-09-11T18:01:41.116Z,22.80
2018-09-11T18:04:43.516Z,22.70
2018-09-11T18:07:46.247Z,22.60
2018-09-11T18:10:48.729Z,22.60
2018-09-11T18:13:51.342Z,22.60
2018-09-11T18:16:53.668Z,22.60
2018-09-11T18:19:56.162Z,22.40
2018-09-11T18:22:58.787Z,22.40
2018-09-11T18:26:01.204Z,22.40
2018-09-11T18:29:03.678Z,22.30
2018-09-11T18:32:06.386Z,22.20
2018-09-11T18:35:09.484Z,22.10
2018-09-11T18:38:12.419Z,22.10
2018-09-11T18:41:15.261Z,22.10
2018-09-11T18:44:18.170Z,22.00
2018-09-11T18:47:20.683Z,22.00
2018-09-11T18:50:23.518Z,22.10
2018-09-11T18:53:26.389Z,22.10
2018-09-11T18:56:29.191Z,22.00
2018-09-11T18:59:32.263Z,22.10
2018-09-11T19:02:34.958Z,22.10
2018-09-11T19:05:37.312Z,21.90
2018-09-11T19:08:39.913Z,21.80
2018-09-11T19:11:42.753Z,21.80
2018-09-11T19:14:45.247Z,21.80
2018-09-11T19:17:47.998Z,21.80
2018-09-11T19:20:50.685Z,21.80
2018-09-11T19:23:53.488Z,21.70
2018-09-11T19:26:56.423Z,21.70
2018-09-11T19:29:59.716Z,21.70
2018-09-11T19:33:02.301Z,21.60
2018-09-11T19:36:05.820Z,21.60
2018-09-11T19:39:08.999Z,21.40
2018-09-11T19:42:11.429Z,21.50
2018-09-11T19:45:14.815Z,21.50
2018-09-11T19:48:17.734Z,21.60
2018-09-11T19:51:20.990Z,21.50
2018-09-11T19:54:23.606Z,21.60
2018-09-11T19:57:26.338Z,21.50
2018-09-11T20:00:30.521Z,21.40
2018-09-11T20:03:33.396Z,21.40
2018-09-11T20:06:36.233Z,21.40
2018-09-11T20:09:39.274Z,21.40
2018-09-11T20:12:41.871Z,21.40
2018-09-11T20:15:45.008Z,21.40
2018-09-11T20:18:47.952Z,21.40
2018-09-11T20:21:50.917Z,21.30
2018-09-11T20:24:53.534Z,21.40
2018-09-11T20:27:56.174Z,21.30
2018-09-11T20:30:58.863Z,21.30
2018-09-11T20:34:01.237Z,21.30
2018-09-11T20:37:03.663Z,21.30
2018-09-11T20:40:06.595Z,21.30
2018-09-11T20:43:08.937Z,21.30
2018-09-11T20:46:11.343Z,21.60
2018-09-11T20:49:13.991Z,21.80
2018-09-11T20:52:16.331Z,21.90
2018-09-11T20:55:18.724Z,21.70
2018-09-11T20:58:21.535Z,21.60
2018-09-11T21:01:24.070Z,21.60
2018-09-11T21:04:26.455Z,21.70
2018-09-11T21:07:29.063Z,21.60
2018-09-11T21:10:32.011Z,21.70
2018-09-11T21:13:34.428Z,21.60
2018-09-11T21:16:36.911Z,21.70
2018-09-11T21:19:39.314Z,21.80
2018-09-11T21:22:43.141Z,21.50
2018-09-11T21:25:45.528Z,21.40
2018-09-11T21:28:47.892Z,21.30
2018-09-11T21:31:50.279Z,21.20
2018-09-11T21:34:53.861Z,21.20
2018-09-11T21:37:56.233Z,21.10
2018-09-11T21:40:58.655Z,21.00
2018-09-11T21:44:00.999Z,20.90
2018-09-11T21:47:03.520Z,20.90
2018-09-11T21:50:05.981Z,20.90
2018-09-11T21:53:08.432Z,21.00
2018-09-11T21:56:10.772Z,21.00
2018-09-11T21:59:13.125Z,21.00
2018-09-11T22:02:15.514Z,20.90
2018-09-11T22:05:17.866Z,21.00
2018-09-11T22:08:20.280Z,20.80
2018-09-11T22:11:22.649Z,20.80
2018-09-11T22:14:26.772Z,20.90
2018-09-11T22:17:29.227Z,21.00
2018-09-11T22:20:31.615Z,20.90
2018-09-11T22:23:34.781Z,21.00
2018-09-11T22:26:37.159Z,21.10
2018-09-11T22:29:41.210Z,21.20
2018-09-11T22:32:45.974Z,21.20
2018-09-11T22:35:48.357Z,21.30
2018-09-11T22:38:51.113Z,21.30
2018-09-11T22:41:53.473Z,21.20
2018-09-11T22:44:57.767Z,21.20
2018-09-11T22:48:00.419Z,21.20
2018-09-11T22:51:02.811Z,21.20
2018-09-11T22:54:05.435Z,21.10
2018-09-11T22:57:07.882Z,21.10
2018-09-11T23:00:10.255Z,21.00
2018-09-11T23:03:12.638Z,21.00
2018-09-11T23:06:15.090Z,21.10
2018-09-11T23:09:17.466Z,21.20
2018-09-11T23:12:19.842Z,21.20
2018-09-11T23:15:22.206Z,21.00
2018-09-11T23:18:24.523Z,20.90
2018-09-11T23:21:26.880Z,20.80
2018-09-11T23:24:29.228Z,20.80
2018-09-11T23:27:31.653Z,20.80
2018-09-11T23:30:34.106Z,21.00
2018-09-11T23:33:36.458Z,20.90
2018-09-11T23:36:38.952Z,20.90
2018-09-11T23:39:41.353Z,20.90
2018-09-11T23:42:49.480Z,20.80
2018-09-11T23:45:52.562Z,21.00
2018-09-11T23:48:54.916Z,20.80
2018-09-11T23:51:57.450Z,20.80
2018-09-11T23:55:00.400Z,20.90
2018-09-11T23:58:02.811Z,20.90
